sensor_id;sensor_type;location;lat;lon;timestamp;temperature;humidity
5554;DHT22;2800;49.528;8.666;2023-04-25T00:01:37;8.50;99.90
5554;DHT22;2800;49.528;8.666;2023-04-25T00:04:03;8.50;99.90
5554;DHT22;2800;49.528;8.666;2023-04-25T00:06:31;8.40;99.90
5554;DHT22;2800;49.528;8.666;2023-04-25T00:08:57;8.30;99.90
5554;DHT22;2800;49.528;8.666;2023-04-25T00:11:23;8.30;99.90
5554;DHT22;2800;49.528;8.666;2023-04-25T00:13:49;8.30;99.90
5554;DHT22;2800;49.528;8.666;2023-04-25T00:16:16;8.30;99.90
5554;DHT22;2800;49.528;8.666;2023-04-25T00:18:42;8.20;99.90
5554;DHT22;2800;49.528;8.666;2023-04-25T00:21:08;8.20;99.90
5554;DHT22;2800;49.528;8.666;2023-04-25T00:23:33;8.10;99.90
5554;DHT22;2800;49.528;8.666;2023-04-25T00:26:02;8.10;99.90
5554;DHT22;2800;49.528;8.666;2023-04-25T00:28:27;8.10;99.90
5554;DHT22;2800;49.528;8.666;2023-04-25T00:30:53;8.10;99.90
5554;DHT22;2800;49.528;8.666;2023-04-25T00:33:18;8.10;99.90
5554;DHT22;2800;49.528;8.666;2023-04-25T00:35:44;8.10;99.90
5554;DHT22;2800;49.528;8.666;2023-04-25T00:38:09;8.10;99.90
5554;DHT22;2800;49.528;8.666;2023-04-25T00:40:35;8.10;99.90
5554;DHT22;2800;49.528;8.666;2023-04-25T00:43:00;8.10;99.90
5554;DHT22;2800;49.528;8.666;2023-04-25T00:45:29;8.00;99.90
5554;DHT22;2800;49.528;8.666;2023-04-25T00:47:55;8.00;99.90
5554;DHT22;2800;49.528;8.666;2023-04-25T00:50:22;7.90;99.90
5554;DHT22;2800;49.528;8.666;2023-04-25T00:52:47;7.90;99.90
5554;DHT22;2800;49.528;8.666;2023-04-25T00:55:13;7.90;99.90
5554;DHT22;2800;49.528;8.666;2023-04-25T00:57:39;7.90;99.90
5554;DHT22;2800;49.528;8.666;2023-04-25T01:00:06;8.00;99.90
5554;DHT22;2800;49.528;8.666;2023-04-25T01:02:33;7.90;99.90
5554;DHT22;2800;49.528;8.666;2023-04-25T01:04:59;7.90;99.90
5554;DHT22;2800;49.528;8.666;2023-04-25T01:07:25;7.80;99.90
5554;DHT22;2800;49.528;8.666;2023-04-25T01:09:52;7.90;99.90
5554;DHT22;2800;49.528;8.666;2023-04-25T01:12:18;7.90;99.90
5554;DHT22;2800;49.528;8.666;2023-04-25T01:14:43;7.90;99.90
5554;DHT22;2800;49.528;8.666;2023-04-25T01:17:10;7.90;99.90
5554;DHT22;2800;49.528;8.666;2023-04-25T01:19:35;7.90;99.90
5554;DHT22;2800;49.528;8.666;2023-04-25T01:22:01;8.00;99.90
5554;DHT22;2800;49.528;8.666;2023-04-25T01:24:27;8.00;99.90
5554;DHT22;2800;49.528;8.666;2023-04-25T01:26:53;8.10;99.90
5554;DHT22;2800;49.528;8.666;2023-04-25T01:29:22;8.10;99.90
5554;DHT22;2800;49.528;8.666;2023-04-25T01:31:48;8.10;99.90
5554;DHT22;2800;49.528;8.666;2023-04-25T01:34:15;8.00;99.90
5554;DHT22;2800;49.528;8.666;2023-04-25T01:36:40;7.90;99.90
5554;DHT22;2800;49.528;8.666;2023-04-25T01:39:07;7.90;99.90
5554;DHT22;2800;49.528;8.666;2023-04-25T01:41:33;7.90;99.90
5554;DHT22;2800;49.528;8.666;2023-04-25T01:44:00;7.90;99.90
5554;DHT22;2800;49.528;8.666;2023-04-25T01:46:25;7.90;99.90
5554;DHT22;2800;49.528;8.666;2023-04-25T01:48:51;7.90;99.90
5554;DHT22;2800;49.528;8.666;2023-04-25T01:51:17;7.90;99.90
5554;DHT22;2800;49.528;8.666;2023-04-25T01:53:43;8.00;99.90
5554;DHT22;2800;49.528;8.666;2023-04-25T01:56:08;8.00;99.90
5554;DHT22;2800;49.528;8.666;2023-04-25T01:58:34;8.00;99.90
5554;DHT22;2800;49.528;8.666;2023-04-25T02:00:59;8.10;99.90
5554;DHT22;2800;49.528;8.666;2023-04-25T02:03:25;8.10;99.90
5554;DHT22;2800;49.528;8.666;2023-04-25T02:05:51;8.10;99.90
5554;DHT22;2800;49.528;8.666;2023-04-25T02:08:17;8.10;99.90
5554;DHT22;2800;49.528;8.666;2023-04-25T02:10:43;8.10;99.90
5554;DHT22;2800;49.528;8.666;2023-04-25T02:13:09;8.10;99.90
5554;DHT22;2800;49.528;8.666;2023-04-25T02:15:34;8.00;99.90
5554;DHT22;2800;49.528;8.666;2023-04-25T02:18:00;8.00;99.90
5554;DHT22;2800;49.528;8.666;2023-04-25T02:20:26;8.00;99.90
5554;DHT22;2800;49.528;8.666;2023-04-25T02:22:52;8.00;99.90
5554;DHT22;2800;49.528;8.666;2023-04-25T02:25:19;8.10;99.90
5554;DHT22;2800;49.528;8.666;2023-04-25T02:27:46;8.00;99.90
5554;DHT22;2800;49.528;8.666;2023-04-25T02:30:12;8.00;99.90
5554;DHT22;2800;49.528;8.666;2023-04-25T02:32:38;7.90;99.90
5554;DHT22;2800;49.528;8.666;2023-04-25T02:35:04;7.90;99.90
5554;DHT22;2800;49.528;8.666;2023-04-25T02:37:32;7.80;99.90
5554;DHT22;2800;49.528;8.666;2023-04-25T02:39:58;7.80;99.90
5554;DHT22;2800;49.528;8.666;2023-04-25T02:42:24;7.90;99.90
5554;DHT22;2800;49.528;8.666;2023-04-25T02:44:49;7.80;99.90
5554;DHT22;2800;49.528;8.666;2023-04-25T02:47:15;7.80;99.90
5554;DHT22;2800;49.528;8.666;2023-04-25T02:49:41;7.80;99.90
5554;DHT22;2800;49.528;8.666;2023-04-25T02:52:06;7.70;99.90
5554;DHT22;2800;49.528;8.666;2023-04-25T02:54:32;7.70;99.90
5554;DHT22;2800;49.528;8.666;2023-04-25T02:56:57;7.70;99.90
5554;DHT22;2800;49.528;8.666;2023-04-25T02:59:23;7.70;99.90
5554;DHT22;2800;49.528;8.666;2023-04-25T03:01:48;7.70;99.90
5554;DHT22;2800;49.528;8.666;2023-04-25T03:04:14;7.80;99.90
5554;DHT22;2800;49.528;8.666;2023-04-25T03:06:39;7.80;99.90
5554;DHT22;2800;49.528;8.666;2023-04-25T03:09:05;7.80;99.90
5554;DHT22;2800;49.528;8.666;2023-04-25T03:11:30;7.80;99.90
5554;DHT22;2800;49.528;8.666;2023-04-25T03:13:56;7.80;99.90
5554;DHT22;2800;49.528;8.666;2023-04-25T03:16:22;7.70;99.90
5554;DHT22;2800;49.528;8.666;2023-04-25T03:18:47;7.70;99.90
5554;DHT22;2800;49.528;8.666;2023-04-25T03:21:14;7.70;99.90
5554;DHT22;2800;49.528;8.666;2023-04-25T03:23:40;7.70;99.90
5554;DHT22;2800;49.528;8.666;2023-04-25T03:26:05;7.80;99.90
5554;DHT22;2800;49.528;8.666;2023-04-25T03:28:32;7.90;99.90
5554;DHT22;2800;49.528;8.666;2023-04-25T03:30:57;7.80;99.90
5554;DHT22;2800;49.528;8.666;2023-04-25T03:33:23;7.80;99.90
5554;DHT22;2800;49.528;8.666;2023-04-25T03:35:49;7.90;99.90
5554;DHT22;2800;49.528;8.666;2023-04-25T03:38:15;7.90;99.90
5554;DHT22;2800;49.528;8.666;2023-04-25T03:40:40;7.80;99.90
5554;DHT22;2800;49.528;8.666;2023-04-25T03:43:06;7.90;99.90
5554;DHT22;2800;49.528;8.666;2023-04-25T03:45:32;7.80;99.90
5554;DHT22;2800;49.528;8.666;2023-04-25T03:47:57;7.80;99.90
5554;DHT22;2800;49.528;8.666;2023-04-25T03:50:23;7.80;99.90
5554;DHT22;2800;49.528;8.666;2023-04-25T03:52:48;7.80;99.90
5554;DHT22;2800;49.528;8.666;2023-04-25T03:55:15;7.80;99.90
5554;DHT22;2800;49.528;8.666;2023-04-25T03:57:40;7.80;99.90
5554;DHT22;2800;49.528;8.666;2023-04-25T04:00:06;7.80;99.90
5554;DHT22;2800;49.528;8.666;2023-04-25T04:02:32;7.80;99.90
5554;DHT22;2800;49.528;8.666;2023-04-25T04:05:00;7.70;99.90
5554;DHT22;2800;49.528;8.666;2023-04-25T04:07:25;7.80;99.90
5554;DHT22;2800;49.528;8.666;2023-04-25T04:09:51;7.90;99.90
5554;DHT22;2800;49.528;8.666;2023-04-25T04:12:16;7.90;99.90
5554;DHT22;2800;49.528;8.666;2023-04-25T04:14:42;7.90;99.90
5554;DHT22;2800;49.528;8.666;2023-04-25T04:17:07;7.80;99.90
5554;DHT22;2800;49.528;8.666;2023-04-25T04:19:33;7.80;99.90
5554;DHT22;2800;49.528;8.666;2023-04-25T04:21:58;7.70;99.90
5554;DHT22;2800;49.528;8.666;2023-04-25T04:24:24;7.70;99.90
5554;DHT22;2800;49.528;8.666;2023-04-25T04:26:49;7.70;99.90
5554;DHT22;2800;49.528;8.666;2023-04-25T04:29:16;7.70;99.90
5554;DHT22;2800;49.528;8.666;2023-04-25T04:31:48;7.70;99.90
5554;DHT22;2800;49.528;8.666;2023-04-25T04:34:13;7.70;99.90
5554;DHT22;2800;49.528;8.666;2023-04-25T04:36:39;7.80;99.90
5554;DHT22;2800;49.528;8.666;2023-04-25T04:39:05;7.80;99.90
5554;DHT22;2800;49.528;8.666;2023-04-25T04:41:31;7.70;99.90
5554;DHT22;2800;49.528;8.666;2023-04-25T04:43:56;7.80;99.90
5554;DHT22;2800;49.528;8.666;2023-04-25T04:46:22;7.90;99.90
5554;DHT22;2800;49.528;8.666;2023-04-25T04:48:49;7.90;99.90
5554;DHT22;2800;49.528;8.666;2023-04-25T04:51:15;7.90;99.90
5554;DHT22;2800;49.528;8.666;2023-04-25T04:53:40;7.90;99.90
5554;DHT22;2800;49.528;8.666;2023-04-25T04:56:06;7.80;99.90
5554;DHT22;2800;49.528;8.666;2023-04-25T04:58:31;7.80;99.90
5554;DHT22;2800;49.528;8.666;2023-04-25T05:00:57;7.80;99.90
5554;DHT22;2800;49.528;8.666;2023-04-25T05:03:22;7.80;99.90
5554;DHT22;2800;49.528;8.666;2023-04-25T05:05:48;7.90;99.90
5554;DHT22;2800;49.528;8.666;2023-04-25T05:08:13;7.90;99.90
5554;DHT22;2800;49.528;8.666;2023-04-25T05:10:39;7.80;99.90
5554;DHT22;2800;49.528;8.666;2023-04-25T05:13:05;7.70;99.90
5554;DHT22;2800;49.528;8.666;2023-04-25T05:15:30;7.80;99.90
5554;DHT22;2800;49.528;8.666;2023-04-25T05:17:56;7.80;99.90
5554;DHT22;2800;49.528;8.666;2023-04-25T05:20:21;7.80;99.90
5554;DHT22;2800;49.528;8.666;2023-04-25T05:22:47;7.80;99.90
5554;DHT22;2800;49.528;8.666;2023-04-25T05:25:12;7.90;99.90
5554;DHT22;2800;49.528;8.666;2023-04-25T05:27:38;7.90;99.90
5554;DHT22;2800;49.528;8.666;2023-04-25T05:30:04;7.80;99.90
5554;DHT22;2800;49.528;8.666;2023-04-25T05:32:30;7.80;99.90
5554;DHT22;2800;49.528;8.666;2023-04-25T05:34:56;8.00;99.90
5554;DHT22;2800;49.528;8.666;2023-04-25T05:37:21;8.00;99.90
5554;DHT22;2800;49.528;8.666;2023-04-25T05:39:47;8.00;99.90
5554;DHT22;2800;49.528;8.666;2023-04-25T05:42:13;8.00;99.90
5554;DHT22;2800;49.528;8.666;2023-04-25T05:44:38;8.00;99.90
5554;DHT22;2800;49.528;8.666;2023-04-25T05:47:04;8.10;99.90
5554;DHT22;2800;49.528;8.666;2023-04-25T05:49:30;8.10;99.90
5554;DHT22;2800;49.528;8.666;2023-04-25T05:51:55;8.10;99.90
5554;DHT22;2800;49.528;8.666;2023-04-25T05:54:21;8.20;99.90
5554;DHT22;2800;49.528;8.666;2023-04-25T05:56:46;8.20;99.90
5554;DHT22;2800;49.528;8.666;2023-04-25T05:59:12;8.30;99.90
5554;DHT22;2800;49.528;8.666;2023-04-25T06:01:37;8.20;99.90
5554;DHT22;2800;49.528;8.666;2023-04-25T06:04:03;8.40;99.90
5554;DHT22;2800;49.528;8.666;2023-04-25T06:06:29;8.40;99.90
5554;DHT22;2800;49.528;8.666;2023-04-25T06:08:55;8.50;99.90
5554;DHT22;2800;49.528;8.666;2023-04-25T06:11:21;8.60;99.90
5554;DHT22;2800;49.528;8.666;2023-04-25T06:13:46;8.60;99.90
5554;DHT22;2800;49.528;8.666;2023-04-25T06:16:12;8.60;99.90
5554;DHT22;2800;49.528;8.666;2023-04-25T06:18:37;8.70;99.90
5554;DHT22;2800;49.528;8.666;2023-04-25T06:21:03;8.70;99.90
5554;DHT22;2800;49.528;8.666;2023-04-25T06:23:29;8.80;99.90
5554;DHT22;2800;49.528;8.666;2023-04-25T06:25:54;8.80;99.90
5554;DHT22;2800;49.528;8.666;2023-04-25T06:28:20;8.80;99.90
5554;DHT22;2800;49.528;8.666;2023-04-25T06:30:47;8.70;99.90
5554;DHT22;2800;49.528;8.666;2023-04-25T06:33:12;8.70;99.90
5554;DHT22;2800;49.528;8.666;2023-04-25T06:35:38;8.60;99.90
5554;DHT22;2800;49.528;8.666;2023-04-25T06:38:03;8.60;99.90
5554;DHT22;2800;49.528;8.666;2023-04-25T06:40:29;8.40;99.90
5554;DHT22;2800;49.528;8.666;2023-04-25T06:42:54;8.30;99.90
5554;DHT22;2800;49.528;8.666;2023-04-25T06:45:20;8.40;99.90
5554;DHT22;2800;49.528;8.666;2023-04-25T06:47:45;8.30;99.90
5554;DHT22;2800;49.528;8.666;2023-04-25T06:50:11;8.40;99.90
5554;DHT22;2800;49.528;8.666;2023-04-25T06:52:37;8.40;99.90
5554;DHT22;2800;49.528;8.666;2023-04-25T06:55:02;8.40;99.90
5554;DHT22;2800;49.528;8.666;2023-04-25T06:57:29;8.40;99.90
5554;DHT22;2800;49.528;8.666;2023-04-25T06:59:54;8.50;99.90
5554;DHT22;2800;49.528;8.666;2023-04-25T07:02:20;8.60;99.90
5554;DHT22;2800;49.528;8.666;2023-04-25T07:04:47;8.60;99.90
5554;DHT22;2800;49.528;8.666;2023-04-25T07:07:12;8.70;99.90
5554;DHT22;2800;49.528;8.666;2023-04-25T07:09:38;8.80;99.90
5554;DHT22;2800;49.528;8.666;2023-04-25T07:12:03;8.80;99.90
5554;DHT22;2800;49.528;8.666;2023-04-25T07:14:29;8.80;99.90
5554;DHT22;2800;49.528;8.666;2023-04-25T07:16:55;8.90;99.90
5554;DHT22;2800;49.528;8.666;2023-04-25T07:19:22;8.90;99.90
5554;DHT22;2800;49.528;8.666;2023-04-25T07:21:49;9.00;99.90
5554;DHT22;2800;49.528;8.666;2023-04-25T07:24:14;9.10;99.90
5554;DHT22;2800;49.528;8.666;2023-04-25T07:26:40;9.10;99.90
5554;DHT22;2800;49.528;8.666;2023-04-25T07:29:06;9.10;99.90
5554;DHT22;2800;49.528;8.666;2023-04-25T07:31:31;9.10;99.90
5554;DHT22;2800;49.528;8.666;2023-04-25T07:33:57;8.90;99.90
5554;DHT22;2800;49.528;8.666;2023-04-25T07:36:22;9.10;99.90
5554;DHT22;2800;49.528;8.666;2023-04-25T07:38:48;9.20;99.90
5554;DHT22;2800;49.528;8.666;2023-04-25T07:41:13;9.10;99.90
5554;DHT22;2800;49.528;8.666;2023-04-25T07:43:39;9.10;99.90
5554;DHT22;2800;49.528;8.666;2023-04-25T07:46:04;9.10;99.90
5554;DHT22;2800;49.528;8.666;2023-04-25T07:48:30;9.20;99.90
5554;DHT22;2800;49.528;8.666;2023-04-25T07:50:55;9.20;99.90
5554;DHT22;2800;49.528;8.666;2023-04-25T07:53:21;9.20;99.90
5554;DHT22;2800;49.528;8.666;2023-04-25T07:55:47;9.30;99.90
5554;DHT22;2800;49.528;8.666;2023-04-25T07:58:12;9.30;99.90
5554;DHT22;2800;49.528;8.666;2023-04-25T08:00:39;9.50;99.90
5554;DHT22;2800;49.528;8.666;2023-04-25T08:03:04;9.60;99.90
5554;DHT22;2800;49.528;8.666;2023-04-25T08:05:30;9.70;99.90
5554;DHT22;2800;49.528;8.666;2023-04-25T08:07:55;9.80;99.90
5554;DHT22;2800;49.528;8.666;2023-04-25T08:10:22;9.90;99.90
5554;DHT22;2800;49.528;8.666;2023-04-25T08:12:48;10.10;99.90
5554;DHT22;2800;49.528;8.666;2023-04-25T08:15:14;10.40;99.90
5554;DHT22;2800;49.528;8.666;2023-04-25T08:17:39;10.50;99.90
5554;DHT22;2800;49.528;8.666;2023-04-25T08:20:06;10.80;99.90
5554;DHT22;2800;49.528;8.666;2023-04-25T08:22:32;11.00;99.90
5554;DHT22;2800;49.528;8.666;2023-04-25T08:24:57;11.00;99.90
5554;DHT22;2800;49.528;8.666;2023-04-25T08:27:23;10.80;99.90
5554;DHT22;2800;49.528;8.666;2023-04-25T08:29:49;10.80;99.90
5554;DHT22;2800;49.528;8.666;2023-04-25T08:32:15;10.80;99.90
5554;DHT22;2800;49.528;8.666;2023-04-25T08:34:41;10.90;99.90
5554;DHT22;2800;49.528;8.666;2023-04-25T08:37:08;11.00;99.90
5554;DHT22;2800;49.528;8.666;2023-04-25T08:39:35;11.20;99.90
5554;DHT22;2800;49.528;8.666;2023-04-25T08:42:02;11.00;99.90
5554;DHT22;2800;49.528;8.666;2023-04-25T08:44:30;11.00;99.90
5554;DHT22;2800;49.528;8.666;2023-04-25T08:46:56;11.00;99.90
5554;DHT22;2800;49.528;8.666;2023-04-25T08:49:22;10.80;99.90
5554;DHT22;2800;49.528;8.666;2023-04-25T08:51:49;10.70;99.90
5554;DHT22;2800;49.528;8.666;2023-04-25T08:54:16;10.50;99.90
5554;DHT22;2800;49.528;8.666;2023-04-25T08:56:47;10.50;99.90
5554;DHT22;2800;49.528;8.666;2023-04-25T08:59:13;10.80;99.90
5554;DHT22;2800;49.528;8.666;2023-04-25T09:01:38;10.80;99.90
5554;DHT22;2800;49.528;8.666;2023-04-25T09:04:04;11.00;99.90
5554;DHT22;2800;49.528;8.666;2023-04-25T09:06:30;11.10;99.90
5554;DHT22;2800;49.528;8.666;2023-04-25T09:09:08;11.10;99.90
5554;DHT22;2800;49.528;8.666;2023-04-25T09:11:36;11.30;99.90
5554;DHT22;2800;49.528;8.666;2023-04-25T09:14:16;11.10;99.90
5554;DHT22;2800;49.528;8.666;2023-04-25T09:21:57;11.20;99.90
5554;DHT22;2800;49.528;8.666;2023-04-25T09:24:44;11.10;99.90
5554;DHT22;2800;49.528;8.666;2023-04-25T09:27:13;10.70;99.90
5554;DHT22;2800;49.528;8.666;2023-04-25T09:29:43;11.00;99.90
5554;DHT22;2800;49.528;8.666;2023-04-25T09:32:17;11.20;99.90
5554;DHT22;2800;49.528;8.666;2023-04-25T09:34:46;11.30;99.90
5554;DHT22;2800;49.528;8.666;2023-04-25T09:37:21;11.40;99.90
5554;DHT22;2800;49.528;8.666;2023-04-25T09:39:48;11.50;99.90
5554;DHT22;2800;49.528;8.666;2023-04-25T09:42:15;11.70;99.90
5554;DHT22;2800;49.528;8.666;2023-04-25T09:44:43;11.50;99.90
5554;DHT22;2800;49.528;8.666;2023-04-25T09:47:11;11.60;99.90
5554;DHT22;2800;49.528;8.666;2023-04-25T09:49:40;11.50;99.90
5554;DHT22;2800;49.528;8.666;2023-04-25T09:52:06;11.50;99.90
5554;DHT22;2800;49.528;8.666;2023-04-25T09:54:32;11.60;99.90
5554;DHT22;2800;49.528;8.666;2023-04-25T09:57:05;12.20;99.90
5554;DHT22;2800;49.528;8.666;2023-04-25T09:59:35;12.30;99.90
5554;DHT22;2800;49.528;8.666;2023-04-25T10:02:02;12.60;99.90
5554;DHT22;2800;49.528;8.666;2023-04-25T10:04:28;12.80;99.90
5554;DHT22;2800;49.528;8.666;2023-04-25T10:06:56;12.90;99.90
5554;DHT22;2800;49.528;8.666;2023-04-25T10:09:25;13.00;99.90
5554;DHT22;2800;49.528;8.666;2023-04-25T10:11:52;13.40;99.90
5554;DHT22;2800;49.528;8.666;2023-04-25T10:14:18;13.90;99.90
5554;DHT22;2800;49.528;8.666;2023-04-25T10:16:45;14.80;99.90
5554;DHT22;2800;49.528;8.666;2023-04-25T10:19:11;14.90;98.80
5554;DHT22;2800;49.528;8.666;2023-04-25T10:21:51;15.20;95.50
5554;DHT22;2800;49.528;8.666;2023-04-25T10:24:17;15.10;94.80
5554;DHT22;2800;49.528;8.666;2023-04-25T10:26:43;14.70;92.40
5554;DHT22;2800;49.528;8.666;2023-04-25T10:29:09;14.60;95.40
5554;DHT22;2800;49.528;8.666;2023-04-25T10:31:45;14.50;94.50
5554;DHT22;2800;49.528;8.666;2023-04-25T10:34:10;14.40;95.90
5554;DHT22;2800;49.528;8.666;2023-04-25T10:36:36;14.10;99.00
5554;DHT22;2800;49.528;8.666;2023-04-25T10:39:04;13.70;99.90
5554;DHT22;2800;49.528;8.666;2023-04-25T10:41:46;13.40;99.90
5554;DHT22;2800;49.528;8.666;2023-04-25T10:44:13;13.00;99.90
5554;DHT22;2800;49.528;8.666;2023-04-25T10:46:39;12.70;99.90
5554;DHT22;2800;49.528;8.666;2023-04-25T10:49:08;12.40;99.90
5554;DHT22;2800;49.528;8.666;2023-04-25T10:51:36;12.40;99.90
5554;DHT22;2800;49.528;8.666;2023-04-25T10:54:04;12.30;99.90
5554;DHT22;2800;49.528;8.666;2023-04-25T10:56:37;12.30;99.90
5554;DHT22;2800;49.528;8.666;2023-04-25T11:01:56;12.60;99.90
5554;DHT22;2800;49.528;8.666;2023-04-25T11:04:32;12.50;99.90
5554;DHT22;2800;49.528;8.666;2023-04-25T11:09:34;12.20;99.90
5554;DHT22;2800;49.528;8.666;2023-04-25T11:12:00;12.20;99.90
5554;DHT22;2800;49.528;8.666;2023-04-25T11:14:26;12.00;99.90
5554;DHT22;2800;49.528;8.666;2023-04-25T11:16:53;11.90;99.90
5554;DHT22;2800;49.528;8.666;2023-04-25T11:19:21;12.00;99.90
5554;DHT22;2800;49.528;8.666;2023-04-25T11:21:46;11.60;99.90
5554;DHT22;2800;49.528;8.666;2023-04-25T11:24:12;11.60;99.90
5554;DHT22;2800;49.528;8.666;2023-04-25T11:26:37;11.60;99.90
5554;DHT22;2800;49.528;8.666;2023-04-25T11:29:03;11.60;99.90
5554;DHT22;2800;49.528;8.666;2023-04-25T11:31:29;11.50;99.90
5554;DHT22;2800;49.528;8.666;2023-04-25T11:33:57;11.40;99.90
5554;DHT22;2800;49.528;8.666;2023-04-25T11:36:23;11.40;99.90
5554;DHT22;2800;49.528;8.666;2023-04-25T11:38:50;11.30;99.90
5554;DHT22;2800;49.528;8.666;2023-04-25T11:41:17;11.20;99.90
5554;DHT22;2800;49.528;8.666;2023-04-25T11:43:43;11.20;99.90
5554;DHT22;2800;49.528;8.666;2023-04-25T11:46:09;11.20;99.90
5554;DHT22;2800;49.528;8.666;2023-04-25T11:48:42;11.40;99.90
5554;DHT22;2800;49.528;8.666;2023-04-25T11:51:07;11.60;99.90
5554;DHT22;2800;49.528;8.666;2023-04-25T11:53:33;12.00;99.90
5554;DHT22;2800;49.528;8.666;2023-04-25T11:55:59;12.50;99.90
5554;DHT22;2800;49.528;8.666;2023-04-25T11:58:26;13.80;99.90
5554;DHT22;2800;49.528;8.666;2023-04-25T12:00:52;13.80;97.90
5554;DHT22;2800;49.528;8.666;2023-04-25T12:03:18;13.50;97.00
5554;DHT22;2800;49.528;8.666;2023-04-25T12:05:45;12.90;97.80
5554;DHT22;2800;49.528;8.666;2023-04-25T12:08:15;12.70;99.90
5554;DHT22;2800;49.528;8.666;2023-04-25T12:10:43;12.30;98.80
5554;DHT22;2800;49.528;8.666;2023-04-25T12:13:25;12.10;99.90
5554;DHT22;2800;49.528;8.666;2023-04-25T12:15:54;11.90;99.90
5554;DHT22;2800;49.528;8.666;2023-04-25T12:18:22;11.80;99.90
5554;DHT22;2800;49.528;8.666;2023-04-25T12:20:48;11.70;99.90
5554;DHT22;2800;49.528;8.666;2023-04-25T12:23:14;11.60;99.90
5554;DHT22;2800;49.528;8.666;2023-04-25T12:25:41;11.50;99.90
5554;DHT22;2800;49.528;8.666;2023-04-25T12:31:03;11.80;99.90
5554;DHT22;2800;49.528;8.666;2023-04-25T12:33:31;11.90;99.90
5554;DHT22;2800;49.528;8.666;2023-04-25T12:35:57;11.90;99.90
5554;DHT22;2800;49.528;8.666;2023-04-25T12:38:26;12.00;99.90
5554;DHT22;2800;49.528;8.666;2023-04-25T12:40:53;12.30;99.90
5554;DHT22;2800;49.528;8.666;2023-04-25T12:43:19;12.50;99.90
5554;DHT22;2800;49.528;8.666;2023-04-25T12:45:47;12.70;99.90
5554;DHT22;2800;49.528;8.666;2023-04-25T12:48:13;12.70;99.90
5554;DHT22;2800;49.528;8.666;2023-04-25T12:50:39;12.80;99.50
5554;DHT22;2800;49.528;8.666;2023-04-25T12:53:04;12.60;99.90
5554;DHT22;2800;49.528;8.666;2023-04-25T12:55:30;12.50;99.40
5554;DHT22;2800;49.528;8.666;2023-04-25T12:57:55;12.50;99.50
5554;DHT22;2800;49.528;8.666;2023-04-25T13:00:21;12.50;99.90
5554;DHT22;2800;49.528;8.666;2023-04-25T13:02:46;12.90;99.90
5554;DHT22;2800;49.528;8.666;2023-04-25T13:05:12;13.60;99.90
5554;DHT22;2800;49.528;8.666;2023-04-25T13:07:38;13.80;97.00
5554;DHT22;2800;49.528;8.666;2023-04-25T13:10:05;13.90;97.20
5554;DHT22;2800;49.528;8.666;2023-04-25T13:12:31;14.00;95.70
5554;DHT22;2800;49.528;8.666;2023-04-25T13:14:56;14.10;95.40
5554;DHT22;2800;49.528;8.666;2023-04-25T13:17:22;14.10;91.60
5554;DHT22;2800;49.528;8.666;2023-04-25T13:19:47;14.10;93.00
5554;DHT22;2800;49.528;8.666;2023-04-25T13:22:13;14.20;90.90
5554;DHT22;2800;49.528;8.666;2023-04-25T13:24:40;14.10;87.40
5554;DHT22;2800;49.528;8.666;2023-04-25T13:27:06;14.10;86.30
5554;DHT22;2800;49.528;8.666;2023-04-25T13:29:31;14.60;86.60
5554;DHT22;2800;49.528;8.666;2023-04-25T13:32:00;14.40;84.50
5554;DHT22;2800;49.528;8.666;2023-04-25T13:34:26;14.10;86.10
5554;DHT22;2800;49.528;8.666;2023-04-25T13:36:51;13.80;86.30
5554;DHT22;2800;49.528;8.666;2023-04-25T13:39:17;13.90;88.00
5554;DHT22;2800;49.528;8.666;2023-04-25T13:41:42;14.10;81.30
5554;DHT22;2800;49.528;8.666;2023-04-25T13:44:08;14.50;83.40
5554;DHT22;2800;49.528;8.666;2023-04-25T13:46:34;14.30;76.60
5554;DHT22;2800;49.528;8.666;2023-04-25T13:48:59;14.10;78.10
5554;DHT22;2800;49.528;8.666;2023-04-25T13:51:26;13.80;79.60
5554;DHT22;2800;49.528;8.666;2023-04-25T13:53:52;13.80;81.20
5554;DHT22;2800;49.528;8.666;2023-04-25T13:56:18;13.90;82.50
5554;DHT22;2800;49.528;8.666;2023-04-25T13:58:44;14.70;80.70
5554;DHT22;2800;49.528;8.666;2023-04-25T14:04:32;14.90;73.70
5554;DHT22;2800;49.528;8.666;2023-04-25T14:06:58;14.00;73.50
5554;DHT22;2800;49.528;8.666;2023-04-25T14:09:23;13.60;75.20
5554;DHT22;2800;49.528;8.666;2023-04-25T14:11:54;13.20;76.40
5554;DHT22;2800;49.528;8.666;2023-04-25T14:14:20;13.00;80.70
5554;DHT22;2800;49.528;8.666;2023-04-25T14:16:47;12.70;81.00
5554;DHT22;2800;49.528;8.666;2023-04-25T14:19:17;12.70;85.80
5554;DHT22;2800;49.528;8.666;2023-04-25T14:21:43;12.60;85.50
5554;DHT22;2800;49.528;8.666;2023-04-25T14:24:09;12.60;86.40
5554;DHT22;2800;49.528;8.666;2023-04-25T14:26:36;12.60;90.30
5554;DHT22;2800;49.528;8.666;2023-04-25T14:29:02;12.70;91.60
5554;DHT22;2800;49.528;8.666;2023-04-25T14:31:28;12.50;90.00
5554;DHT22;2800;49.528;8.666;2023-04-25T14:33:53;12.30;85.90
5554;DHT22;2800;49.528;8.666;2023-04-25T14:36:19;12.30;86.00
5554;DHT22;2800;49.528;8.666;2023-04-25T14:38:45;12.20;90.00
5554;DHT22;2800;49.528;8.666;2023-04-25T14:41:11;12.30;93.20
5554;DHT22;2800;49.528;8.666;2023-04-25T14:43:36;12.40;91.90
5554;DHT22;2800;49.528;8.666;2023-04-25T14:46:02;12.40;92.90
5554;DHT22;2800;49.528;8.666;2023-04-25T14:48:29;12.40;93.50
5554;DHT22;2800;49.528;8.666;2023-04-25T14:50:54;12.40;92.20
5554;DHT22;2800;49.528;8.666;2023-04-25T14:53:22;12.30;91.70
5554;DHT22;2800;49.528;8.666;2023-04-25T14:55:47;12.20;89.00
5554;DHT22;2800;49.528;8.666;2023-04-25T14:58:14;12.20;91.10
5554;DHT22;2800;49.528;8.666;2023-04-25T15:00:39;12.30;92.10
5554;DHT22;2800;49.528;8.666;2023-04-25T15:03:05;12.20;92.40
5554;DHT22;2800;49.528;8.666;2023-04-25T15:05:33;12.10;88.70
5554;DHT22;2800;49.528;8.666;2023-04-25T15:07:58;12.00;92.10
5554;DHT22;2800;49.528;8.666;2023-04-25T15:10:24;12.00;93.40
5554;DHT22;2800;49.528;8.666;2023-04-25T15:12:49;12.00;93.00
5554;DHT22;2800;49.528;8.666;2023-04-25T15:15:15;11.90;90.90
5554;DHT22;2800;49.528;8.666;2023-04-25T15:17:41;12.00;90.10
5554;DHT22;2800;49.528;8.666;2023-04-25T15:20:09;11.80;88.60
5554;DHT22;2800;49.528;8.666;2023-04-25T15:22:36;11.70;87.20
5554;DHT22;2800;49.528;8.666;2023-04-25T15:25:02;11.70;89.30
5554;DHT22;2800;49.528;8.666;2023-04-25T15:27:28;11.80;87.70
5554;DHT22;2800;49.528;8.666;2023-04-25T15:29:53;11.90;84.50
5554;DHT22;2800;49.528;8.666;2023-04-25T15:32:19;12.00;83.30
5554;DHT22;2800;49.528;8.666;2023-04-25T15:34:46;12.50;82.70
5554;DHT22;2800;49.528;8.666;2023-04-25T15:37:11;13.20;80.90
5554;DHT22;2800;49.528;8.666;2023-04-25T15:39:37;13.40;75.00
5554;DHT22;2800;49.528;8.666;2023-04-25T15:42:02;13.50;70.00
5554;DHT22;2800;49.528;8.666;2023-04-25T15:44:28;13.00;68.30
5554;DHT22;2800;49.528;8.666;2023-04-25T15:46:54;12.60;69.00
5554;DHT22;2800;49.528;8.666;2023-04-25T15:49:19;12.40;70.00
5554;DHT22;2800;49.528;8.666;2023-04-25T15:51:49;12.10;70.40
5554;DHT22;2800;49.528;8.666;2023-04-25T15:54:16;12.20;73.70
5554;DHT22;2800;49.528;8.666;2023-04-25T15:56:42;12.10;73.00
5554;DHT22;2800;49.528;8.666;2023-04-25T15:59:08;12.00;71.70
5554;DHT22;2800;49.528;8.666;2023-04-25T16:01:34;11.90;70.00
5554;DHT22;2800;49.528;8.666;2023-04-25T16:04:00;11.70;71.20
5554;DHT22;2800;49.528;8.666;2023-04-25T16:06:26;11.70;73.40
5554;DHT22;2800;49.528;8.666;2023-04-25T16:08:51;11.70;76.20
5554;DHT22;2800;49.528;8.666;2023-04-25T16:11:18;11.70;77.40
5554;DHT22;2800;49.528;8.666;2023-04-25T16:13:44;11.80;77.20
5554;DHT22;2800;49.528;8.666;2023-04-25T16:16:09;11.90;78.70
5554;DHT22;2800;49.528;8.666;2023-04-25T16:18:35;11.90;72.50
5554;DHT22;2800;49.528;8.666;2023-04-25T16:21:01;11.80;73.80